Wetterdaten: Woche 26.03.12 - 01.04.12 (KW13)
Datum Zeit Temp. A. Feuchte A. Luftdruck Regen Wind Richtung Taupunkt Windchill Windben
26.03.2012 00:00 12,7 C 45 % 1026,6 hPa 0,0 l/m 6,9 km/h N 1,1 C 12,3 C 16,9 km/h
26.03.2012 01:00 11,9 C 48 % 1027,0 hPa 0,0 l/m 6,6 km/h N 1,2 C 11,6 C 15,7 km/h
26.03.2012 02:00 11,3 C 50 % 1027,2 hPa 0,0 l/m 7,0 km/h N 1,3 C 10,9 C 17,3 km/h
26.03.2012 03:00 10,6 C 52 % 1027,4 hPa 0,0 l/m 7,4 km/h N 1,2 C 9,9 C 18,1 km/h
26.03.2012 04:00 9,9 C 56 % 1027,8 hPa 0,0 l/m 6,2 km/h N 1,4 C 9,8 C 16,1 km/h
26.03.2012 05:00 9,4 C 59 % 1028,3 hPa 0,0 l/m 6,2 km/h N 1,7 C 9,4 C 16,9 km/h
26.03.2012 06:00 8,6 C 62 % 1029,1 hPa 0,0 l/m 5,8 km/h N 1,7 C 8,5 C 14,9 km/h
26.03.2012 07:00 7,8 C 65 % 1030,1 hPa 0,0 l/m 6,0 km/h N 1,7 C 7,8 C 16,9 km/h
26.03.2012 08:00 7,9 C 64 % 1030,9 hPa 0,0 l/m 7,9 km/h N 1,6 C 6,8 C 19,7 km/h
26.03.2012 09:00 9,1 C 60 % 1031,3 hPa 0,0 l/m 8,7 km/h N 1,8 C 7,5 C 20,5 km/h
26.03.2012 10:00 10,6 C 51 % 1031,5 hPa 0,0 l/m 10,7 km/h N 0,9 C 7,9 C 24,9 km/h
26.03.2012 11:00 11,6 C 44 % 1031,6 hPa 0,0 l/m 9,7 km/h N -0,4 C 9,6 C 21,7 km/h
26.03.2012 12:00 13,0 C 40 % 1031,3 hPa 0,0 l/m 9,6 km/h N -0,2 C 11,1 C 22,9 km/h
26.03.2012 13:00 14,0 C 33 % 1031,1 hPa 0,0 l/m 10,2 km/h N -1,9 C 11,9 C 22,5 km/h
26.03.2012 14:00 14,9 C 30 % 1030,5 hPa 0,0 l/m 8,6 km/h N -2,6 C 13,8 C 23,3 km/h
26.03.2012 15:00 15,4 C 31 % 1030,0 hPa 0,0 l/m 10,3 km/h N -1,9 C 13,4 C 23,3 km/h
26.03.2012 16:00 15,8 C 30 % 1029,5 hPa 0,0 l/m 9,7 km/h N -1,9 C 14,1 C 22,1 km/h
26.03.2012 17:00 15,8 C 25 % 1029,2 hPa 0,0 l/m 9,1 km/h N -4,1 C 14,5 C 23,7 km/h
26.03.2012 18:00 15,3 C 24 % 1029,1 hPa 0,0 l/m 7,6 km/h N -5,4 C 14,5 C 18,1 km/h
26.03.2012 19:00 13,6 C 28 % 1029,4 hPa 0,0 l/m 1,8 km/h N -4,5 C 13,6 C 8,4 km/h
26.03.2012 20:00 12,0 C 34 % 1030,1 hPa 0,0 l/m 1,9 km/h N -3,5 C 12,0 C 11,3 km/h
26.03.2012 21:00 10,6 C 37 % 1030,9 hPa 0,0 l/m 1,8 km/h N -3,5 C 10,6 C 7,6 km/h
26.03.2012 22:00 8,8 C 40 % 1031,1 hPa 0,0 l/m 0,2 km/h N -4,3 C 8,8 C 4,4 km/h
26.03.2012 23:00 5,9 C 49 % 1031,4 hPa 0,0 l/m 0,3 km/h N -4,0 C 5,9 C 1,6 km/h
27.03.2012 00:00 5,2 C 52 % 1031,4 hPa 0,0 l/m 0,5 km/h N -4,0 C 5,2 C 3,6 km/h
27.03.2012 01:00 3,3 C 60 % 1031,9 hPa 0,0 l/m 0,0 km/h N -3,8 C 3,3 C 0,4 km/h
27.03.2012 02:00 2,6 C 62 % 1031,5 hPa 0,0 l/m 0,0 km/h N -3,9 C 2,6 C 0,0 km/h
27.03.2012 03:00 2,4 C 62 % 1031,0 hPa 0,0 l/m 0,2 km/h N -4,1 C 2,4 C 2,0 km/h
27.03.2012 04:00 1,7 C 63 % 1030,7 hPa 0,0 l/m 0,3 km/h N -4,5 C 1,7 C 2,8 km/h
27.03.2012 05:00 1,8 C 64 % 1030,7 hPa 0,0 l/m 1,1 km/h N -4,4 C 1,8 C 4,8 km/h
27.03.2012 06:00 2,1 C 62 % 1030,3 hPa 0,0 l/m 0,7 km/h N -4,5 C 2,1 C 4,8 km/h
27.03.2012 07:00 2,7 C 60 % 1029,9 hPa 0,0 l/m 1,2 km/h N -4,4 C 2,7 C 5,6 km/h
27.03.2012 08:00 4,4 C 59 % 1029,8 hPa 0,0 l/m 0,1 km/h N -3,0 C 4,4 C 1,2 km/h
27.03.2012 09:00 9,4 C 45 % 1029,4 hPa 0,0 l/m 6,0 km/h N -1,9 C 8,8 C 16,1 km/h
27.03.2012 10:00 11,3 C 40 % 1029,3 hPa 0,0 l/m 11,9 km/h N -1,8 C 8,1 C 26,5 km/h
27.03.2012 11:00 13,2 C 38 % 1028,8 hPa 0,0 l/m 15,0 km/h N -0,9 C 9,0 C 32,2 km/h
27.03.2012 12:00 14,6 C 35 % 1027,8 hPa 0,0 l/m 15,0 km/h N -0,9 C 10,7 C 30,6 km/h
27.03.2012 13:00 15,9 C 33 % 1026,7 hPa 0,0 l/m 16,0 km/h N -0,3 C 12,0 C 35,8 km/h
27.03.2012 14:00 16,4 C 32 % 1025,6 hPa 0,0 l/m 18,9 km/h N -0,6 C 11,8 C 36,6 km/h
27.03.2012 15:00 16,5 C 34 % 1024,7 hPa 0,0 l/m 15,8 km/h N 0,4 C 12,8 C 32,6 km/h
27.03.2012 16:00 17,2 C 34 % 1024,0 hPa 0,0 l/m 15,7 km/h N 1,2 C 13,7 C 33,8 km/h
27.03.2012 17:00 16,7 C 35 % 1023,8 hPa 0,0 l/m 14,4 km/h N 1,2 C 13,4 C 30,6 km/h
27.03.2012 18:00 16,1 C 35 % 1023,4 hPa 0,0 l/m 16,0 km/h N 0,5 C 12,2 C 36,2 km/h
27.03.2012 19:00 15,8 C 37 % 1023,3 hPa 0,0 l/m 14,8 km/h N 1,1 C 12,2 C 32,6 km/h
27.03.2012 20:00 15,6 C 39 % 1023,2 hPa 0,0 l/m 16,7 km/h N 1,8 C 11,4 C 33,4 km/h
27.03.2012 21:00 15,1 C 41 % 1023,8 hPa 0,0 l/m 15,4 km/h N 2,0 C 11,2 C 32,6 km/h
27.03.2012 22:00 14,4 C 45 % 1024,5 hPa 0,0 l/m 11,6 km/h N 2,7 C 11,8 C 24,9 km/h
27.03.2012 23:00 14,3 C 53 % 1025,2 hPa 0,0 l/m 12,4 km/h N 4,7 C 11,3 C 26,6 km/h
28.03.2012 00:00 13,6 C 57 % 1025,8 hPa 0,0 l/m 9,6 km/h N 5,1 C 11,8 C 22,9 km/h
28.03.2012 01:00 13,0 C 60 % 1026,2 hPa 0,0 l/m 9,9 km/h N 5,4 C 11,0 C 24,9 km/h
28.03.2012 02:00 12,2 C 61 % 1026,4 hPa 0,0 l/m 9,3 km/h N 4,9 C 10,5 C 18,9 km/h
28.03.2012 03:00 11,6 C 64 % 1026,3 hPa 0,0 l/m 9,0 km/h N 5,0 C 9,9 C 20,5 km/h
28.03.2012 04:00 11,1 C 66 % 1026,4 hPa 0,0 l/m 9,8 km/h N 5,0 C 9,0 C 19,7 km/h
28.03.2012 05:00 10,8 C 67 % 1026,6 hPa 0,0 l/m 10,4 km/h N 4,9 C 8,3 C 20,9 km/h
28.03.2012 06:00 10,3 C 68 % 1026,9 hPa 0,0 l/m 10,6 km/h N 4,6 C 7,5 C 22,9 km/h
28.03.2012 07:00 10,3 C 68 % 1026,9 hPa 0,0 l/m 13,4 km/h N 4,6 C 6,3 C 27,8 km/h
28.03.2012 08:00 11,5 C 67 % 1026,7 hPa 0,0 l/m 14,0 km/h N 5,6 C 7,4 C 31,0 km/h
28.03.2012 09:00 13,6 C 60 % 1026,7 hPa 0,0 l/m 16,0 km/h N 5,9 C 9,1 C 35,0 km/h
28.03.2012 10:00 14,9 C 54 % 1026,2 hPa 0,0 l/m 16,3 km/h N 5,6 C 10,6 C 32,6 km/h
28.03.2012 11:00 16,3 C 50 % 1025,7 hPa 0,0 l/m 14,5 km/h N 5,9 C 12,9 C 30,6 km/h
28.03.2012 12:00 17,6 C 47 % 1024,8 hPa 0,0 l/m 10,4 km/h N 6,2 C 15,9 C 23,7 km/h
28.03.2012 13:00 18,4 C 46 % 1023,8 hPa 0,0 l/m 11,7 km/h N 6,4 C 16,4 C 26,6 km/h
28.03.2012 14:00 19,4 C 43 % 1022,5 hPa 0,0 l/m 12,4 km/h N 6,6 C 17,3 C 29,8 km/h
28.03.2012 15:00 20,0 C 42 % 1021,2 hPa 0,0 l/m 11,2 km/h N 6,5 C 18,3 C 28,2 km/h
28.03.2012 16:00 20,2 C 41 % 1020,3 hPa 0,0 l/m 12,1 km/h N 6,4 C 18,3 C 27,8 km/h
28.03.2012 17:00 20,2 C 40 % 1019,4 hPa 0,0 l/m 10,3 km/h N 6,3 C 18,8 C 28,1 km/h
28.03.2012 18:00 19,5 C 42 % 1018,9 hPa 0,0 l/m 7,6 km/h N 6,2 C 19,1 C 23,7 km/h
28.03.2012 19:00 18,5 C 44 % 1018,7 hPa 0,0 l/m 8,0 km/h N 5,9 C 17,8 C 22,1 km/h
28.03.2012 20:00 17,8 C 46 % 1018,7 hPa 0,0 l/m 8,9 km/h N 6,1 C 16,7 C 23,3 km/h
28.03.2012 21:00 17,1 C 50 % 1018,5 hPa 0,0 l/m 8,1 km/h N 6,6 C 16,3 C 20,9 km/h
28.03.2012 22:00 16,8 C 51 % 1018,2 hPa 0,0 l/m 12,6 km/h N 6,4 C 14,1 C 29,8 km/h
28.03.2012 23:00 16,3 C 51 % 1017,9 hPa 0,0 l/m 12,0 km/h N 6,0 C 13,8 C 25,3 km/h
29.03.2012 00:00 15,7 C 50 % 1017,6 hPa 0,0 l/m 10,4 km/h N 5,3 C 13,8 C 24,1 km/h
29.03.2012 01:00 14,8 C 52 % 1017,0 hPa 0,0 l/m 7,5 km/h N 5,0 C 14,1 C 18,9 km/h
29.03.2012 02:00 14,3 C 50 % 1016,5 hPa 0,0 l/m 6,6 km/h N 4,0 C 13,8 C 21,7 km/h
29.03.2012 03:00 13,9 C 51 % 1016,0 hPa 0,0 l/m 6,9 km/h N 3,7 C 13,3 C 24,1 km/h
29.03.2012 04:00 13,6 C 51 % 1015,5 hPa 0,0 l/m 9,3 km/h N 3,6 C 12,0 C 22,9 km/h
29.03.2012 05:00 13,0 C 52 % 1014,7 hPa 0,0 l/m 7,4 km/h N 3,4 C 12,3 C 24,1 km/h
29.03.2012 06:00 12,6 C 53 % 1014,1 hPa 0,0 l/m 8,2 km/h N 3,1 C 11,5 C 23,7 km/h
29.03.2012 07:00 12,9 C 49 % 1013,7 hPa 0,0 l/m 13,1 km/h N 2,5 C 9,4 C 31,4 km/h
29.03.2012 08:00 13,3 C 47 % 1013,4 hPa 0,0 l/m 13,4 km/h N 2,1 C 9,7 C 35,0 km/h
29.03.2012 09:00 14,0 C 44 % 1013,4 hPa 0,0 l/m 17,5 km/h N 1,9 C 9,1 C 35,4 km/h
29.03.2012 10:00 14,3 C 44 % 1013,4 hPa 0,0 l/m 16,0 km/h N 2,1 C 10,0 C 32,2 km/h
29.03.2012 11:00 14,8 C 43 % 1012,8 hPa 0,0 l/m 15,9 km/h N 2,3 C 10,7 C 36,6 km/h
29.03.2012 12:00 16,4 C 39 % 1011,7 hPa 0,0 l/m 15,8 km/h N 2,4 C 12,7 C 36,6 km/h
29.03.2012 13:00 17,0 C 39 % 1010,5 hPa 0,0 l/m 17,5 km/h N 2,9 C 13,0 C 43,0 km/h
29.03.2012 14:00 16,8 C 42 % 1009,6 hPa 0,0 l/m 23,1 km/h N 3,6 C 11,4 C 51,9 km/h
29.03.2012 15:00 16,9 C 41 % 1009,1 hPa 0,0 l/m 19,5 km/h N 3,5 C 12,3 C 41,1 km/h
29.03.2012 16:00 15,7 C 38 % 1009,1 hPa 0,0 l/m 15,4 km/h N 1,3 C 12,0 C 34,2 km/h
29.03.2012 17:00 13,9 C 46 % 1009,0 hPa 0,0 l/m 15,0 km/h N 2,3 C 9,9 C 33,0 km/h
29.03.2012 18:00 11,5 C 62 % 1009,6 hPa 1,6 l/m 15,4 km/h N 4,2 C 6,8 C 32,6 km/h
29.03.2012 19:00 8,8 C 79 % 1010,3 hPa 0,3 l/m 6,9 km/h N 5,4 C 8,0 C 18,5 km/h
29.03.2012 20:00 8,5 C 77 % 1010,8 hPa 1,3 l/m 10,0 km/h N 4,7 C 6,0 C 22,9 km/h
29.03.2012 21:00 7,8 C 79 % 1010,8 hPa 0,0 l/m 6,2 km/h N 4,3 C 7,5 C 14,9 km/h
29.03.2012 22:00 8,8 C 71 % 1010,1 hPa 0,0 l/m 9,9 km/h N 3,7 C 6,4 C 24,5 km/h
29.03.2012 23:00 9,7 C 64 % 1009,3 hPa 0,0 l/m 10,8 km/h N 3,1 C 6,8 C 24,9 km/h
30.03.2012 00:00 9,9 C 63 % 1008,5 hPa 0,0 l/m 11,8 km/h N 3,1 C 6,6 C 24,9 km/h
30.03.2012 01:00 9,1 C 68 % 1008,2 hPa 0,5 l/m 15,4 km/h N 3,5 C 4,0 C 35,8 km/h
30.03.2012 02:00 9,0 C 67 % 1008,0 hPa 0,3 l/m 22,1 km/h N 3,1 C 1,3 C 44,3 km/h
30.03.2012 03:00 7,3 C 80 % 1008,3 hPa 1,8 l/m 16,7 km/h N 4,0 C 1,1 C 37,4 km/h
30.03.2012 04:00 7,3 C 78 % 1007,9 hPa 0,3 l/m 17,6 km/h W-NW 3,8 C 0,9 C 37,8 km/h
30.03.2012 05:00 7,9 C 72 % 1008,0 hPa 0,0 l/m 20,8 km/h N 3,0 C 0,3 C 48,7 km/h
30.03.2012 06:00 7,8 C 70 % 1008,6 hPa 0,0 l/m 17,5 km/h N 2,7 C 1,5 C 39,5 km/h
30.03.2012 07:00 7,4 C 76 % 1009,1 hPa 0,3 l/m 17,4 km/h N 3,3 C 0,9 C 37,8 km/h
30.03.2012 08:00 7,6 C 80 % 1009,4 hPa 0,5 l/m 10,3 km/h N 4,3 C 4,8 C 27,8 km/h
30.03.2012 09:00 8,8 C 75 % 1009,4 hPa 0,0 l/m 12,4 km/h N 4,5 C 5,0 C 27,4 km/h
30.03.2012 10:00 9,1 C 75 % 1009,6 hPa 0,5 l/m 15,9 km/h N 4,9 C 3,8 C 35,0 km/h
30.03.2012 11:00 9,2 C 72 % 1009,8 hPa 0,0 l/m 12,9 km/h N-NO 4,4 C 5,4 C 30,2 km/h
30.03.2012 12:00 6,9 C 81 % 1010,2 hPa 3,4 l/m 6,3 km/h NW 3,9 C 6,7 C 18,9 km/h
30.03.2012 13:00 7,2 C 81 % 1010,0 hPa 4,7 l/m 7,3 km/h N-NO 4,1 C 6,5 C 19,3 km/h
30.03.2012 14:00 9,0 C 81 % 1009,3 hPa 0,0 l/m 6,6 km/h NO 5,9 C 8,7 C 17,3 km/h
30.03.2012 15:00 9,8 C 78 % 1008,7 hPa 0,0 l/m 10,3 km/h W-NW 6,1 C 7,4 C 27,8 km/h
30.03.2012 16:00 10,7 C 69 % 1007,9 hPa 0,0 l/m 16,0 km/h W-NW 5,3 C 5,6 C 35,8 km/h
30.03.2012 17:00 10,4 C 72 % 1007,8 hPa 0,3 l/m 14,3 km/h W-NW 5,6 C 6,0 C 33,0 km/h
30.03.2012 18:00 10,6 C 71 % 1007,5 hPa 0,0 l/m 15,6 km/h W-NW 5,5 C 5,6 C 34,6 km/h
30.03.2012 19:00 10,2 C 74 % 1007,7 hPa 0,3 l/m 14,9 km/h W-NW 5,7 C 5,4 C 36,2 km/h
30.03.2012 20:00 9,8 C 77 % 1008,0 hPa 0,3 l/m 13,9 km/h W-NW 5,8 C 5,3 C 34,6 km/h
30.03.2012 21:00 10,1 C 74 % 1008,0 hPa 0,0 l/m 17,0 km/h W-NW 5,7 C 4,5 C 39,0 km/h
30.03.2012 22:00 10,1 C 73 % 1008,2 hPa 0,0 l/m 18,6 km/h W-SW 5,5 C 3,9 C 42,6 km/h
30.03.2012 23:00 9,9 C 75 % 1008,2 hPa 0,0 l/m 18,8 km/h W 5,7 C 3,6 C 40,2 km/h
31.03.2012 00:00 9,8 C 75 % 1008,2 hPa 0,3 l/m 17,6 km/h NW 5,5 C 3,9 C 37,4 km/h
31.03.2012 01:00 9,9 C 73 % 1007,8 hPa 0,0 l/m 20,2 km/h W 5,3 C 3,1 C 44,2 km/h
31.03.2012 02:00 9,9 C 71 % 1007,6 hPa 0,0 l/m 19,9 km/h W 4,9 C 3,2 C 38,6 km/h
31.03.2012 03:00 8,9 C 77 % 1007,6 hPa 0,0 l/m 19,7 km/h W-NW 5,1 C 1,9 C 38,2 km/h
31.03.2012 04:00 9,0 C 73 % 1006,9 hPa 0,0 l/m 15,7 km/h SW 4,4 C 3,7 C 34,6 km/h
31.03.2012 05:00 9,0 C 71 % 1006,0 hPa 0,0 l/m 15,4 km/h W-NW 4,0 C 3,8 C 41,0 km/h
31.03.2012 06:00 9,3 C 68 % 1005,5 hPa 0,0 l/m 17,4 km/h N 3,7 C 3,4 C 38,2 km/h
31.03.2012 07:00 9,6 C 66 % 1005,5 hPa 0,0 l/m 14,4 km/h N 3,6 C 5,0 C 40,6 km/h
31.03.2012 08:00 9,8 C 66 % 1005,0 hPa 0,0 l/m 21,8 km/h N 3,7 C 2,5 C 49,1 km/h
31.03.2012 09:00 10,6 C 62 % 1004,2 hPa 0,3 l/m 24,6 km/h N 3,7 C 2,9 C 50,7 km/h
31.03.2012 10:00 11,5 C 59 % 1003,6 hPa 0,0 l/m 24,5 km/h N 3,7 C 4,0 C 51,5 km/h
31.03.2012 11:00 12,5 C 56 % 1003,2 hPa 0,0 l/m 25,0 km/h N 3,9 C 5,3 C 53,5 km/h
31.03.2012 12:00 13,0 C 52 % 1002,7 hPa 0,0 l/m 26,4 km/h N 3,4 C 5,7 C 58,4 km/h
31.03.2012 13:00 13,2 C 53 % 1002,1 hPa 0,0 l/m 24,1 km/h N 3,8 C 6,4 C 54,3 km/h
31.03.2012 14:00 13,5 C 52 % 1001,8 hPa 0,0 l/m 25,3 km/h N 3,9 C 6,5 C 51,9 km/h
31.03.2012 15:00 12,6 C 55 % 1001,7 hPa 0,0 l/m 25,4 km/h N 3,7 C 5,2 C 53,9 km/h
31.03.2012 16:00 12,1 C 53 % 1001,8 hPa 0,0 l/m 25,8 km/h N 2,9 C 4,5 C 51,1 km/h
31.03.2012 17:00 11,5 C 55 % 1001,6 hPa 0,0 l/m 17,8 km/h N 2,8 C 6,0 C 42,2 km/h
31.03.2012 18:00 11,8 C 51 % 1001,3 hPa 0,0 l/m 19,5 km/h N 1,9 C 5,7 C 45,9 km/h
31.03.2012 19:00 11,4 C 54 % 1001,8 hPa 0,0 l/m 19,2 km/h N 2,3 C 5,4 C 45,1 km/h
31.03.2012 20:00 4,4 C 79 % 1005,1 hPa 2,9 l/m 15,7 km/h N 1,2 C -1,8 C 36,6 km/h
31.03.2012 21:00 4,0 C 80 % 1005,8 hPa 1,0 l/m 13,3 km/h N 0,8 C -1,2 C 30,2 km/h
31.03.2012 22:00 3,2 C 82 % 1006,9 hPa 1,8 l/m 11,4 km/h NW 0,4 C -0,9 C 28,5 km/h
31.03.2012 23:00 4,0 C 68 % 1008,4 hPa 0,3 l/m 14,8 km/h N -1,4 C -2,0 C 33,0 km/h
01.04.2012 00:00 3,6 C 63 % 1009,7 hPa 0,0 l/m 14,6 km/h N -2,8 C -2,3 C 31,8 km/h
01.04.2012 01:00 3,0 C 60 % 1011,0 hPa 0,0 l/m 15,5 km/h N -4,0 C -3,6 C 32,2 km/h
01.04.2012 02:00 2,6 C 63 % 1011,2 hPa 0,0 l/m 13,1 km/h N -3,7 C -2,7 C 30,2 km/h
01.04.2012 03:00 2,4 C 66 % 1011,5 hPa 0,0 l/m 11,1 km/h N -3,3 C -1,6 C 26,1 km/h
01.04.2012 04:00 2,4 C 65 % 1012,3 hPa 0,0 l/m 11,4 km/h N -3,4 C -1,8 C 27,3 km/h
01.04.2012 05:00 2,1 C 66 % 1013,0 hPa 0,0 l/m 10,8 km/h N -3,5 C -1,6 C 26,5 km/h
01.04.2012 06:00 2,1 C 65 % 1013,6 hPa 0,0 l/m 12,6 km/h N -3,8 C -2,9 C 27,8 km/h
01.04.2012 07:00 2,3 C 63 % 1014,5 hPa 0,0 l/m 12,1 km/h N -4,0 C -2,5 C 25,4 km/h
01.04.2012 08:00 2,8 C 62 % 1015,3 hPa 0,0 l/m 10,4 km/h N -3,8 C -0,7 C 24,1 km/h
01.04.2012 09:00 3,3 C 61 % 1016,0 hPa 0,0 l/m 13,1 km/h N -3,5 C -1,8 C 28,6 km/h
01.04.2012 10:00 4,0 C 56 % 1016,4 hPa 0,0 l/m 13,3 km/h N -4,0 C -1,2 C 27,4 km/h
01.04.2012 11:00 4,8 C 54 % 1016,3 hPa 0,0 l/m 11,4 km/h N -3,9 C 0,9 C 25,0 km/h
01.04.2012 12:00 5,0 C 49 % 1016,1 hPa 0,0 l/m 10,0 km/h N -4,7 C 2,0 C 22,9 km/h
01.04.2012 13:00 6,6 C 49 % 1015,7 hPa 0,0 l/m 10,7 km/h N -3,4 C 3,4 C 25,3 km/h
01.04.2012 14:00 7,2 C 44 % 1015,0 hPa 0,0 l/m 11,1 km/h N -4,3 C 3,9 C 24,1 km/h
01.04.2012 15:00 8,5 C 41 % 1014,4 hPa 0,0 l/m 9,9 km/h N -4,0 C 6,0 C 25,8 km/h
01.04.2012 16:00 7,8 C 38 % 1014,0 hPa 0,0 l/m 10,9 km/h N -5,5 C 4,6 C 24,9 km/h
01.04.2012 17:00 8,0 C 38 % 1013,6 hPa 0,0 l/m 10,7 km/h N -5,5 C 5,0 C 21,7 km/h
01.04.2012 18:00 7,7 C 41 % 1013,4 hPa 0,0 l/m 4,4 km/h N -4,7 C 7,7 C 16,5 km/h
01.04.2012 19:00 7,3 C 46 % 1013,5 hPa 0,0 l/m 0,1 km/h N -3,7 C 7,3 C 2,8 km/h
01.04.2012 20:00 6,0 C 48 % 1013,7 hPa 0,0 l/m 1,2 km/h N -4,2 C 6,0 C 7,6 km/h
01.04.2012 21:00 4,7 C 54 % 1014,1 hPa 0,0 l/m 0,5 km/h N -3,9 C 4,7 C 4,4 km/h
01.04.2012 22:00 3,7 C 58 % 1014,2 hPa 0,0 l/m 0,6 km/h N -3,7 C 3,7 C 4,4 km/h
01.04.2012 23:00 3,1 C 61 % 1014,0 hPa 0,0 l/m 1,5 km/h N -3,8 C 3,1 C 6,0 km/h
Min-Datum _ 27.03.12 26.03.12 31.03.12 - 26.03.12 - 01.04.12 01.04.12 26.03.12
_ Min-Zeit 04:30 18:00 17:45 - 22:45 - 16:30 01:45 23:00
Minimum _ 1,4 C 23 % 1001,3 hPa - 0,0 km/h - -6,2 C -4,6 C 0,0 km/h
Max-Datum _ 28.03.12 30.03.12 27.03.12 30.03.12 31.03.12 - 28.03.12 28.03.12 31.03.12
_ Max-Zeit 16:00 14:30 01:15 13:00 11:45 - 15:45 18:00 12:30
Maximum _ 20,4 C 82 % 1031,9 hPa 4,7 l/m 29,0 km/h
N
- 6,8 C 19,7 C 64,4 km/h
N
Durchschnitt _ 10,6 C 56 % 1017,2 hPa #22,6 l/m 11,9 km/h N 1,5 C 7,4 C 27,3 km/h